Time;durP1;ratioP1;P1;durP2;ratioP2;P2;SDS_P1;SDS_P2;PMS_P1;PMS_P2;Temp;Humidity;BMP_temperature;BMP_pressure;BME280_temperature;BME280_humidity;BME280_pressure;Samples;Min_cycle;Max_cycle;Signal;HPM_P1;HPM_P2
2024/01/04 00:01:34;;;;;;;2.88;1.58;;;23.00;47.00;;;;;;6211702;27;80855;-54
2024/01/04 00:04:34;;;;;;;2.20;1.60;;;23.00;47.00;;;;;;6211706;27;80915;-52
2024/01/04 00:07:35;;;;;;;1.75;1.20;;;23.00;47.10;;;;;;6211282;27;80830;-53
2024/01/04 00:10:36;;;;;;;2.50;1.67;;;23.00;47.80;;;;;;6210980;28;80420;-52
2024/01/04 00:13:36;;;;;;;2.28;1.15;;;23.00;47.20;;;;;;6211780;27;81676;-52
2024/01/04 00:16:37;;;;;;;2.47;1.48;;;23.00;47.10;;;;;;6210009;27;80638;-52
2024/01/04 00:19:37;;;;;;;2.50;1.33;;;23.00;47.20;;;;;;6219151;27;81228;-53
2024/01/04 00:22:38;;;;;;;2.35;1.40;;;23.00;47.10;;;;;;6226577;27;80306;-52
2024/01/04 00:25:38;;;;;;;2.78;1.63;;;23.00;47.10;;;;;;6226986;27;80565;-57
2024/01/04 00:28:38;;;;;;;2.17;1.38;;;23.00;47.10;;;;;;6217899;27;81168;-55
2024/01/04 00:31:39;;;;;;;3.05;1.75;;;23.00;47.10;;;;;;6201846;27;80682;-56
2024/01/04 00:34:40;;;;;;;3.45;1.55;;;23.00;47.20;;;;;;6213180;27;80503;-55
2024/01/04 00:37:40;;;;;;;1.73;1.25;;;23.00;47.10;;;;;;6208848;27;81067;-67
2024/01/04 00:40:41;;;;;;;3.17;1.33;;;23.00;47.20;;;;;;6202953;27;80676;-66
2024/01/04 00:43:42;;;;;;;2.10;1.50;;;23.00;47.30;;;;;;6199956;27;81385;-66
2024/01/04 00:46:43;;;;;;;1.80;1.33;;;23.10;47.40;;;;;;6230516;27;83682;-65
2024/01/04 00:49:43;;;;;;;2.20;1.23;;;23.00;47.20;;;;;;6208043;28;80388;-66
2024/01/04 00:52:44;;;;;;;2.45;1.52;;;23.00;47.20;;;;;;6225815;27;80133;-67
2024/01/04 00:55:44;;;;;;;2.42;1.52;;;23.00;47.30;;;;;;6225107;27;80689;-64
2024/01/04 00:58:45;;;;;;;2.28;1.73;;;23.00;47.30;;;;;;6226247;27;82505;-64
2024/01/04 01:01:45;;;;;;;3.83;1.48;;;23.00;47.20;;;;;;6225136;28;87326;-64
2024/01/04 01:04:46;;;;;;;2.25;1.40;;;23.00;47.30;;;;;;6226934;27;80211;-63
2024/01/04 01:07:46;;;;;;;2.38;1.10;;;23.00;47.20;;;;;;6224016;27;81830;-64
2024/01/04 01:10:47;;;;;;;1.83;1.20;;;23.00;47.20;;;;;;6211817;27;86137;-63
2024/01/04 01:13:47;;;;;;;2.45;1.20;;;23.00;47.20;;;;;;6207512;27;80753;-56
2024/01/04 01:16:48;;;;;;;2.05;1.20;;;23.00;47.20;;;;;;6215171;27;80838;-54
2024/01/04 01:19:49;;;;;;;1.52;1.27;;;23.00;47.10;;;;;;6224855;27;81338;-51
2024/01/04 01:22:49;;;;;;;2.40;1.20;;;23.00;46.90;;;;;;6225649;27;81566;-51
2024/01/04 01:25:50;;;;;;;1.85;1.23;;;23.00;46.90;;;;;;6220489;27;82012;-49
2024/01/04 01:28:51;;;;;;;1.63;1.10;;;23.00;47.00;;;;;;6214165;27;80325;-51
2024/01/04 01:31:51;;;;;;;1.25;1.10;;;22.90;46.90;;;;;;6201523;27;82104;-47
2024/01/04 01:34:54;;;;;;;1.70;1.00;;;23.00;47.00;;;;;;6211723;27;80942;-49
2024/01/04 01:37:54;;;;;;;1.30;1.05;;;23.00;46.90;;;;;;6224591;27;82731;-47
2024/01/04 01:40:55;;;;;;;2.13;1.30;;;22.90;46.80;;;;;;6225215;27;80424;-50
2024/01/04 01:43:55;;;;;;;1.77;1.15;;;22.90;46.90;;;;;;6223611;28;83599;-46
2024/01/04 01:46:56;;;;;;;2.65;1.20;;;22.90;46.90;;;;;;6206284;27;82052;-46
2024/01/04 01:49:56;;;;;;;1.67;1.27;;;22.90;46.70;;;;;;6220016;27;82395;-53
2024/01/04 01:52:58;;;;;;;2.30;1.10;;;22.90;47.00;;;;;;6220590;27;81739;-53
2024/01/04 01:55:59;;;;;;;2.30;1.10;;;23.00;47.10;;;;;;6215322;28;81369;-54
2024/01/04 01:58:59;;;;;;;1.55;1.35;;;23.00;47.00;;;;;;6215462;27;83436;-58
2024/01/04 02:01:59;;;;;;;1.88;1.20;;;23.00;47.00;;;;;;6237383;27;83042;-54
2024/01/04 02:05:00;;;;;;;1.77;1.00;;;23.00;47.10;;;;;;6214528;28;81481;-51
2024/01/04 02:08:00;;;;;;;1.35;1.25;;;23.00;47.10;;;;;;6202629;28;83475;-57
2024/01/04 02:11:01;;;;;;;1.48;0.90;;;23.00;47.10;;;;;;6216328;27;83068;-50
2024/01/04 02:14:01;;;;;;;1.08;0.90;;;23.00;47.00;;;;;;6220462;27;83719;-47
2024/01/04 02:17:02;;;;;;;1.90;1.35;;;23.00;47.10;;;;;;6198515;27;80524;-48
2024/01/04 02:20:02;;;;;;;1.85;1.20;;;23.00;47.00;;;;;;6220235;28;83326;-47
2024/01/04 02:23:03;;;;;;;1.60;1.00;;;23.00;47.10;;;;;;6228917;27;82090;-45
2024/01/04 02:26:03;;;;;;;1.42;1.10;;;23.00;47.10;;;;;;6255750;27;86236;-51
2024/01/04 02:29:04;;;;;;;1.02;0.90;;;23.00;47.20;;;;;;6224473;27;80620;-46
2024/01/04 02:32:04;;;;;;;1.50;0.80;;;23.00;47.20;;;;;;6226970;27;81937;-46
2024/01/04 02:35:05;;;;;;;1.42;1.00;;;23.00;47.10;;;;;;6224958;27;83712;-46
2024/01/04 02:38:06;;;;;;;1.85;0.90;;;23.00;47.10;;;;;;6225941;27;80288;-48
2024/01/04 02:41:07;;;;;;;0.80;0.80;;;23.00;47.30;;;;;;6227237;27;81648;-47
2024/01/04 02:44:07;;;;;;;0.88;0.70;;;23.00;47.10;;;;;;6227447;27;80335;-49
2024/01/04 02:47:08;;;;;;;1.40;0.95;;;23.00;47.30;;;;;;6216367;27;81070;-52
2024/01/04 02:50:08;;;;;;;1.10;1.00;;;23.00;47.40;;;;;;6225549;27;82023;-57
2024/01/04 02:53:09;;;;;;;2.55;0.85;;;22.90;47.20;;;;;;6218480;27;80509;-52
2024/01/04 02:56:09;;;;;;;2.25;1.05;;;23.00;47.20;;;;;;6220504;27;81393;-51
2024/01/04 02:59:10;;;;;;;1.48;0.90;;;23.00;47.30;;;;;;6225264;27;81316;-55
2024/01/04 03:02:11;;;;;;;2.08;1.10;;;22.90;47.20;;;;;;6224945;28;82308;-53
2024/01/04 03:05:11;;;;;;;1.10;1.00;;;22.90;47.30;;;;;;6228456;27;80498;-63
2024/01/04 03:08:11;;;;;;;0.73;0.70;;;23.00;47.30;;;;;;6227599;27;80379;-62
2024/01/04 03:11:12;;;;;;;0.68;0.65;;;23.00;47.30;;;;;;6225448;27;80405;-62
2024/01/04 03:14:12;;;;;;;1.65;0.95;;;23.00;47.40;;;;;;6224195;27;80784;-63
2024/01/04 03:17:13;;;;;;;0.80;0.80;;;22.90;47.60;;;;;;6225496;27;81985;-62
2024/01/04 03:20:13;;;;;;;1.17;0.82;;;22.90;47.40;;;;;;6225535;27;80752;-60
2024/01/04 03:23:14;;;;;;;1.10;0.77;;;23.00;47.40;;;;;;6223157;27;80473;-57
2024/01/04 03:26:14;;;;;;;1.30;0.80;;;22.90;47.40;;;;;;6202815;27;80559;-56
2024/01/04 03:29:15;;;;;;;1.80;1.00;;;22.90;47.40;;;;;;6217474;27;80423;-55
2024/01/04 03:32:15;;;;;;;0.85;0.80;;;23.00;48.10;;;;;;6214537;27;81377;-56
2024/01/04 03:35:16;;;;;;;1.63;0.90;;;23.00;47.50;;;;;;6210522;27;80406;-55
2024/01/04 03:38:16;;;;;;;0.95;0.70;;;23.00;47.40;;;;;;6202226;27;81762;-57
2024/01/04 03:41:17;;;;;;;2.50;0.70;;;23.00;47.50;;;;;;6202777;27;80480;-57
2024/01/04 03:44:17;;;;;;;0.77;0.70;;;23.00;47.50;;;;;;6202954;27;80395;-56
2024/01/04 03:47:18;;;;;;;0.50;0.50;;;23.00;47.50;;;;;;6205389;27;81555;-56
2024/01/04 03:50:18;;;;;;;0.75;0.60;;;23.00;47.50;;;;;;6225608;27;80197;-52
2024/01/04 03:53:19;;;;;;;1.02;0.70;;;23.00;47.60;;;;;;6218755;27;81140;-55
2024/01/04 03:56:19;;;;;;;1.85;0.70;;;23.00;47.60;;;;;;6208656;27;81149;-55
2024/01/04 03:59:20;;;;;;;0.88;0.70;;;23.00;47.70;;;;;;6209067;27;80682;-63
2024/01/04 04:02:20;;;;;;;0.70;0.70;;;23.00;47.70;;;;;;6216703;27;83415;-63
2024/01/04 04:05:21;;;;;;;0.77;0.63;;;23.00;47.70;;;;;;6221163;27;80401;-63
2024/01/04 04:08:21;;;;;;;1.13;0.75;;;23.00;47.70;;;;;;6227029;27;80681;-62
2024/01/04 04:11:22;;;;;;;1.90;0.90;;;23.00;47.70;;;;;;6220041;27;80755;-62
2024/01/04 04:14:22;;;;;;;1.08;0.70;;;23.00;47.70;;;;;;6222530;27;81044;-70
2024/01/04 04:17:24;;;;;;;4.07;0.93;;;23.00;47.70;;;;;;6214351;27;81332;-54
2024/01/04 04:20:24;;;;;;;2.25;0.60;;;23.00;47.70;;;;;;6224090;27;81432;-54
2024/01/04 04:23:25;;;;;;;1.60;0.90;;;23.00;47.70;;;;;;6225571;27;80582;-56
2024/01/04 04:26:25;;;;;;;1.67;0.73;;;23.10;47.50;;;;;;6225915;27;80782;-55
2024/01/04 04:29:26;;;;;;;3.80;0.77;;;23.00;47.20;;;;;;6209771;27;80700;-57
2024/01/04 04:32:26;;;;;;;3.15;0.70;;;23.10;47.20;;;;;;6215910;27;81247;-54
2024/01/04 04:35:27;;;;;;;1.55;0.85;;;23.10;47.20;;;;;;6209924;27;81182;-54
2024/01/04 04:38:27;;;;;;;1.42;0.85;;;23.10;47.10;;;;;;6202648;27;80509;-52
2024/01/04 04:41:28;;;;;;;1.05;0.75;;;23.10;47.00;;;;;;6202850;27;82053;-51
2024/01/04 04:44:28;;;;;;;0.50;0.50;;;23.10;47.00;;;;;;6202333;27;80344;-48
2024/01/04 04:47:29;;;;;;;0.55;0.50;;;23.10;47.00;;;;;;6203020;27;81313;-47
2024/01/04 04:50:29;;;;;;;0.63;0.60;;;23.20;47.00;;;;;;6200015;27;80543;-49
2024/01/04 04:53:30;;;;;;;0.95;0.73;;;23.20;46.90;;;;;;6201473;27;80945;-50
2024/01/04 04:56:30;;;;;;;1.10;0.68;;;23.20;47.00;;;;;;6201118;28;82055;-47
2024/01/04 04:59:31;;;;;;;1.45;0.85;;;23.20;46.90;;;;;;6214035;27;80346;-54
2024/01/04 05:02:31;;;;;;;0.68;0.60;;;23.30;47.00;;;;;;6221872;27;80491;-51
2024/01/04 05:05:33;;;;;;;0.65;0.60;;;23.30;47.00;;;;;;6207202;27;82331;-49
2024/01/04 05:08:33;;;;;;;2.35;0.80;;;23.30;47.50;;;;;;6223479;27;83338;-55
2024/01/04 05:11:34;;;;;;;0.90;0.60;;;23.30;48.10;;;;;;6217648;27;80613;-48
2024/01/04 05:14:34;;;;;;;2.97;0.65;;;23.40;47.90;;;;;;6221184;27;80602;-64
2024/01/04 05:17:35;;;;;;;1.67;0.80;;;23.40;47.90;;;;;;6220726;27;80390;-71
2024/01/04 05:20:35;;;;;;;3.92;0.70;;;23.40;48.60;;;;;;6221902;27;80882;-70
2024/01/04 05:23:36;;;;;;;0.68;0.52;;;23.50;48.40;;;;;;6209727;28;81360;-64
2024/01/04 05:26:36;;;;;;;0.60;0.52;;;23.50;48.60;;;;;;6206283;27;80674;-66
2024/01/04 05:29:37;;;;;;;0.70;0.50;;;23.50;48.40;;;;;;6232409;27;82163;-62
2024/01/04 05:32:37;;;;;;;3.90;0.60;;;23.50;48.50;;;;;;6214630;27;82683;-60
2024/01/04 05:35:38;;;;;;;1.30;0.80;;;23.50;48.60;;;;;;6213631;27;80637;-61
2024/01/04 05:38:39;;;;;;;3.85;0.70;;;23.50;48.70;;;;;;6197891;27;81845;-60
2024/01/04 05:41:39;;;;;;;1.20;0.57;;;23.50;48.60;;;;;;6210855;27;80973;-64
2024/01/04 05:44:40;;;;;;;3.30;0.88;;;23.60;48.40;;;;;;6204919;27;81029;-60
2024/01/04 05:47:40;;;;;;;3.80;0.70;;;23.60;48.30;;;;;;6214032;27;80977;-58
2024/01/04 05:50:40;;;;;;;2.15;0.70;;;23.60;48.40;;;;;;6202857;28;81947;-69
2024/01/04 05:53:41;;;;;;;2.20;0.80;;;23.50;47.30;;;;;;6209234;27;83122;-71
2024/01/04 05:56:44;;;;;;;2.33;0.90;;;23.20;45.70;;;;;;6196714;27;80231;-69
2024/01/04 05:59:44;;;;;;;1.70;0.70;;;22.90;45.30;;;;;;6195958;28;80957;-70
2024/01/04 06:02:46;;;;;;;1.38;0.70;;;22.70;45.30;;;;;;6204059;28;80535;-71
2024/01/04 06:05:47;;;;;;;0.60;0.60;;;22.50;45.40;;;;;;6197814;27;80868;-70
2024/01/04 06:08:47;;;;;;;2.35;0.80;;;22.40;45.60;;;;;;6198468;27;80681;-64
2024/01/04 06:11:48;;;;;;;2.17;0.93;;;22.20;45.70;;;;;;6199553;27;82703;-63
2024/01/04 06:14:49;;;;;;;3.17;0.98;;;22.00;45.70;;;;;;6200200;27;80798;-64
2024/01/04 06:17:49;;;;;;;1.48;1.00;;;22.00;45.90;;;;;;6203577;27;83024;-64
2024/01/04 06:20:50;;;;;;;2.85;0.90;;;21.90;46.10;;;;;;6225707;27;80496;-61
2024/01/04 06:23:50;;;;;;;1.70;0.70;;;21.80;46.20;;;;;;6222861;27;80563;-62
2024/01/04 06:26:51;;;;;;;1.20;0.90;;;21.40;46.60;;;;;;6224752;27;80767;-72
2024/01/04 06:29:51;;;;;;;1.52;0.82;;;21.40;47.30;;;;;;6223785;27;80561;-67
2024/01/04 06:32:52;;;;;;;1.05;0.88;;;21.50;47.30;;;;;;6224149;27;80262;-68
2024/01/04 06:35:52;;;;;;;3.03;0.88;;;21.40;47.20;;;;;;6221097;28;81614;-69
2024/01/04 06:38:53;;;;;;;2.00;1.25;;;21.50;47.20;;;;;;6224392;27;80415;-70
2024/01/04 06:41:53;;;;;;;1.60;0.80;;;21.60;47.00;;;;;;6223740;27;80402;-65
2024/01/04 06:44:54;;;;;;;1.15;0.70;;;21.60;46.90;;;;;;6223580;27;80530;-48
2024/01/04 06:47:54;;;;;;;3.67;0.80;;;21.70;46.90;;;;;;6223182;27;80349;-45
2024/01/04 06:50:55;;;;;;;1.80;0.90;;;21.70;47.00;;;;;;6224343;27;82337;-50
2024/01/04 06:53:55;;;;;;;1.95;0.80;;;21.70;46.60;;;;;;6210121;27;80709;-47
2024/01/04 06:56:56;;;;;;;2.47;0.80;;;21.70;46.60;;;;;;6208841;28;82673;-47
2024/01/04 06:59:56;;;;;;;2.03;1.40;;;21.70;46.30;;;;;;6207694;27;80456;-49
2024/01/04 07:02:58;;;;;;;0.68;0.60;;;21.70;46.20;;;;;;6205433;28;80702;-48
2024/01/04 07:05:59;;;;;;;1.52;0.80;;;21.70;46.00;;;;;;6200712;27;81243;-46
2024/01/04 07:08:59;;;;;;;1.40;0.70;;;21.70;46.00;;;;;;6200365;28;81716;-49
2024/01/04 07:12:00;;;;;;;2.15;0.70;;;21.70;45.80;;;;;;6199079;27;80780;-45
2024/01/04 07:15:00;;;;;;;0.65;0.52;;;21.70;46.10;;;;;;6204927;28;82844;-48
2024/01/04 07:18:00;;;;;;;1.83;0.90;;;21.70;45.80;;;;;;6205693;28;87781;-46
2024/01/04 07:21:01;;;;;;;0.95;0.60;;;21.70;45.80;;;;;;6228306;27;80797;-47
2024/01/04 07:24:01;;;;;;;1.52;0.70;;;21.70;45.90;;;;;;6203898;27;80378;-47
2024/01/04 07:27:02;;;;;;;0.60;0.50;;;21.70;45.90;;;;;;6204560;27;81341;-47
2024/01/04 07:30:02;;;;;;;1.23;0.68;;;21.70;46.00;;;;;;6210608;27;83529;-46
2024/01/04 07:33:03;;;;;;;1.30;0.80;;;21.60;45.90;;;;;;6207294;27;83294;-46
2024/01/04 07:36:04;;;;;;;2.65;1.13;;;21.60;45.90;;;;;;6208590;27;81232;-45
2024/01/04 07:39:04;;;;;;;2.42;0.80;;;21.60;46.00;;;;;;6201981;27;81218;-47
2024/01/04 07:42:05;;;;;;;2.60;0.95;;;21.60;46.20;;;;;;6202227;27;80693;-49
2024/01/04 07:45:06;;;;;;;1.80;1.10;;;21.50;46.30;;;;;;6212553;27;80501;-46
2024/01/04 07:48:06;;;;;;;1.25;0.90;;;21.40;46.40;;;;;;6226368;27;80607;-49
2024/01/04 07:51:07;;;;;;;3.58;1.38;;;21.30;46.60;;;;;;6227163;27;83693;-47
2024/01/04 07:54:07;;;;;;;2.72;1.52;;;21.30;46.80;;;;;;6206596;27;80643;-48
2024/01/04 07:57:09;;;;;;;3.30;1.80;;;21.30;46.80;;;;;;6203618;27;80352;-45
2024/01/04 08:00:10;;;;;;;3.58;1.35;;;21.30;47.20;;;;;;6227503;27;80829;-50
2024/01/04 08:03:13;;;;;;;3.83;1.70;;;21.30;47.00;;;;;;6226619;27;81879;-52
2024/01/04 08:06:14;;;;;;;5.25;1.60;;;21.20;47.20;;;;;;6226708;27;80424;-53
2024/01/04 08:09:14;;;;;;;3.75;1.50;;;21.10;47.50;;;;;;6226022;27;80403;-49
2024/01/04 08:12:15;;;;;;;3.20;1.73;;;21.00;47.60;;;;;;6225778;27;81595;-50
2024/01/04 08:15:15;;;;;;;4.40;1.75;;;21.00;47.90;;;;;;6224032;27;80382;-54
2024/01/04 08:18:16;;;;;;;5.57;1.92;;;20.90;48.00;;;;;;6226619;27;82412;-50
2024/01/04 08:21:18;;;;;;;6.47;2.00;;;20.90;48.20;;;;;;6212119;27;80412;-54
2024/01/04 08:24:19;;;;;;;3.00;1.75;;;20.80;48.30;;;;;;6201993;28;80332;-51
2024/01/04 08:27:19;;;;;;;3.78;1.80;;;20.70;48.60;;;;;;6214172;27;80470;-52
2024/01/04 08:30:20;;;;;;;4.30;2.00;;;20.60;48.70;;;;;;6225904;27;80462;-53
2024/01/04 08:33:20;;;;;;;6.20;2.72;;;20.50;48.90;;;;;;6225855;27;80613;-52
2024/01/04 08:36:21;;;;;;;3.20;1.83;;;20.50;49.30;;;;;;6212200;27;81079;-46
2024/01/04 08:39:21;;;;;;;4.43;1.90;;;20.50;49.10;;;;;;6225968;27;81906;-48
2024/01/04 08:42:22;;;;;;;3.20;1.75;;;20.50;49.00;;;;;;6226561;27;80868;-48
2024/01/04 08:45:22;;;;;;;4.68;1.83;;;20.50;49.00;;;;;;6224037;27;83183;-46
2024/01/04 08:48:23;;;;;;;4.05;1.70;;;20.50;48.90;;;;;;6202604;27;80265;-47
2024/01/04 08:51:23;;;;;;;2.70;1.75;;;20.50;48.80;;;;;;6225556;27;80405;-49
2024/01/04 08:54:24;;;;;;;6.00;1.90;;;20.70;48.90;;;;;;6212026;27;81449;-61
2024/01/04 08:57:24;;;;;;;5.60;1.90;;;20.70;48.60;;;;;;6225533;27;80472;-61
2024/01/04 09:00:24;;;;;;;2.15;1.45;;;20.60;48.50;;;;;;6226470;27;80518;-62
2024/01/04 09:03:25;;;;;;;2.53;1.48;;;20.60;48.60;;;;;;6226348;27;80508;-61
2024/01/04 09:06:25;;;;;;;4.50;1.85;;;20.70;48.50;;;;;;6225519;27;80654;-61
2024/01/04 09:09:26;;;;;;;2.80;1.85;;;20.60;48.20;;;;;;6225386;27;80167;-61
2024/01/04 09:12:30;;;;;;;3.97;1.60;;;20.50;48.40;;;;;;6225693;27;80961;-52
2024/01/04 09:15:30;;;;;;;3.05;1.73;;;20.40;48.20;;;;;;6225175;27;80180;-55
2024/01/04 09:18:33;;;;;;;2.60;1.77;;;20.50;48.50;;;;;;6225415;27;80711;-53
2024/01/04 09:21:34;;;;;;;2.03;1.35;;;20.50;48.30;;;;;;6225239;27;83468;-52
2024/01/04 09:24:34;;;;;;;3.50;1.38;;;20.50;48.00;;;;;;6217400;27;82200;-50
2024/01/04 09:27:35;;;;;;;1.85;1.25;;;20.50;47.90;;;;;;6215754;27;80545;-48
2024/01/04 09:30:35;;;;;;;3.92;1.33;;;20.50;47.60;;;;;;6211943;27;80873;-50
2024/01/04 09:33:35;;;;;;;1.73;1.08;;;20.50;47.80;;;;;;6217692;27;80943;-57
2024/01/04 09:36:36;;;;;;;3.20;1.50;;;20.80;47.80;;;;;;6213323;28;80392;-52
2024/01/04 09:39:39;;;;;;;3.63;1.23;;;20.90;47.70;;;;;;6216465;27;81181;-55
2024/01/04 09:42:40;;;;;;;2.72;1.30;;;21.00;47.60;;;;;;6224394;27;83599;-55
2024/01/04 09:45:40;;;;;;;3.92;1.52;;;21.20;47.50;;;;;;6208820;27;80865;-54
2024/01/04 09:48:43;;;;;;;4.03;1.50;;;21.30;47.30;;;;;;6203425;28;81421;-53
2024/01/04 09:51:43;;;;;;;1.35;0.88;;;21.40;47.40;;;;;;6216375;27;80988;-56
2024/01/04 09:54:43;;;;;;;2.78;1.20;;;21.40;47.30;;;;;;6202485;27;82092;-51
2024/01/04 09:57:44;;;;;;;3.58;1.08;;;21.50;47.30;;;;;;6220514;27;80309;-53
2024/01/04 10:00:44;;;;;;;2.08;1.08;;;21.60;47.10;;;;;;6223719;27;80452;-54
2024/01/04 10:03:45;;;;;;;3.38;1.10;;;21.70;47.10;;;;;;6213839;27;80632;-49
2024/01/04 10:06:45;;;;;;;4.93;1.40;;;21.80;46.90;;;;;;6212150;28;80234;-54
2024/01/04 10:09:46;;;;;;;2.22;0.95;;;22.00;46.50;;;;;;6224362;27;85456;-54
2024/01/04 10:12:46;;;;;;;1.88;1.02;;;22.20;46.10;;;;;;6217213;27;80914;-53
2024/01/04 10:15:48;;;;;;;2.92;0.80;;;22.20;45.70;;;;;;6212427;27;87893;-53
2024/01/04 10:18:48;;;;;;;4.53;1.20;;;22.30;45.40;;;;;;6221034;27;81736;-52
2024/01/04 10:21:49;;;;;;;2.15;1.10;;;22.30;45.40;;;;;;6215805;27;80445;-51
2024/01/04 10:24:51;;;;;;;1.77;1.00;;;22.30;45.80;;;;;;6223210;27;80178;-60
2024/01/04 10:27:51;;;;;;;4.75;0.88;;;22.30;46.20;;;;;;6214266;27;80800;-60
2024/01/04 10:30:52;;;;;;;1.85;0.82;;;22.30;46.60;;;;;;6212222;27;80325;-61
2024/01/04 10:33:52;;;;;;;2.03;0.95;;;22.30;47.00;;;;;;6219670;27;82471;-61
2024/01/04 10:36:54;;;;;;;2.80;1.02;;;22.30;47.30;;;;;;6214551;27;80478;-60
2024/01/04 10:39:56;;;;;;;0.80;0.80;;;22.30;47.40;;;;;;6222184;28;81516;-61
2024/01/04 10:42:56;;;;;;;1.63;0.85;;;22.30;47.30;;;;;;6211766;27;80312;-58
2024/01/04 10:45:57;;;;;;;1.30;0.70;;;22.30;47.20;;;;;;6217411;27;83253;-50
2024/01/04 10:48:57;;;;;;;1.45;0.75;;;22.30;47.20;;;;;;6212275;27;80393;-52
2024/01/04 10:51:58;;;;;;;1.17;0.63;;;22.30;47.10;;;;;;6217090;27;80678;-52
2024/01/04 10:54:59;;;;;;;0.90;0.70;;;22.30;47.30;;;;;;6215059;27;82237;-48
2024/01/04 10:58:02;;;;;;;1.13;0.80;;;22.30;47.30;;;;;;6226653;27;80971;-52
2024/01/04 11:01:03;;;;;;;1.40;0.60;;;22.30;47.10;;;;;;6229722;27;80456;-50
2024/01/04 11:04:03;;;;;;;1.08;0.73;;;22.30;46.90;;;;;;6229997;27;81111;-51
2024/01/04 11:07:04;;;;;;;3.40;0.65;;;22.40;46.70;;;;;;6230487;27;81833;-49
2024/01/04 11:10:04;;;;;;;1.45;0.63;;;22.40;46.60;;;;;;6229540;27;81164;-53
2024/01/04 11:13:05;;;;;;;3.13;0.60;;;22.40;46.50;;;;;;6227332;27;82558;-50
2024/01/04 11:16:05;;;;;;;1.10;0.60;;;22.40;46.50;;;;;;6230245;27;83103;-50
2024/01/04 11:19:06;;;;;;;0.88;0.65;;;22.40;46.20;;;;;;6230080;28;85993;-49
2024/01/04 11:22:07;;;;;;;0.65;0.60;;;22.30;46.10;;;;;;6220990;27;81182;-48
2024/01/04 11:25:07;;;;;;;1.17;0.70;;;22.30;46.10;;;;;;6201988;27;80801;-50
2024/01/04 11:28:08;;;;;;;0.70;0.65;;;22.40;46.00;;;;;;6223295;27;80359;-47
2024/01/04 11:31:08;;;;;;;0.80;0.52;;;22.40;46.00;;;;;;6229254;27;80500;-48
2024/01/04 11:34:09;;;;;;;1.50;0.88;;;22.40;45.80;;;;;;6223437;27;80770;-52
2024/01/04 11:37:09;;;;;;;1.45;0.80;;;22.40;45.80;;;;;;6229810;27;80441;-53
2024/01/04 11:40:10;;;;;;;2.17;0.90;;;22.40;45.70;;;;;;6227094;27;80823;-61
2024/01/04 11:43:10;;;;;;;1.52;0.90;;;22.40;45.60;;;;;;6228103;27;80420;-62
2024/01/04 11:46:11;;;;;;;4.10;0.68;;;22.40;45.50;;;;;;6228900;27;80382;-62
2024/01/04 11:49:11;;;;;;;1.17;0.85;;;22.40;45.30;;;;;;6228776;27;80353;-62
2024/01/04 11:52:13;;;;;;;2.45;0.82;;;22.40;45.10;;;;;;6228708;27;80537;-64
2024/01/04 11:55:13;;;;;;;0.90;0.80;;;22.40;45.00;;;;;;6222398;27;81255;-64
2024/01/04 11:58:14;;;;;;;2.17;1.05;;;22.40;44.90;;;;;;6220530;27;80201;-63
2024/01/04 12:01:14;;;;;;;1.25;1.00;;;22.40;44.70;;;;;;6208912;27;80448;-59
2024/01/04 12:04:15;;;;;;;1.73;1.23;;;22.40;44.60;;;;;;6225656;27;82930;-60
2024/01/04 12:07:15;;;;;;;3.60;1.20;;;22.50;44.60;;;;;;6206578;27;80342;-63
2024/01/04 12:10:16;;;;;;;2.83;1.13;;;22.40;44.40;;;;;;6206178;27;80847;-61
2024/01/04 12:13:16;;;;;;;3.60;1.10;;;22.40;44.40;;;;;;6206174;27;80421;-62
2024/01/04 12:16:17;;;;;;;0.85;0.75;;;22.50;44.50;;;;;;6206495;28;81634;-58
2024/01/04 12:19:17;;;;;;;1.38;0.90;;;22.50;44.50;;;;;;6217450;27;82364;-55
2024/01/04 12:22:18;;;;;;;1.30;1.00;;;22.50;44.40;;;;;;6224561;27;80677;-58
2024/01/04 12:25:18;;;;;;;1.67;1.10;;;22.50;44.50;;;;;;6222164;27;80074;-58
2024/01/04 12:28:19;;;;;;;1.40;1.00;;;22.50;44.50;;;;;;6207668;27;82419;-54
2024/01/04 12:31:19;;;;;;;1.65;0.70;;;22.50;44.50;;;;;;6218524;27;81688;-60
2024/01/04 12:34:20;;;;;;;2.13;1.05;;;22.50;44.50;;;;;;6211021;27;80565;-48
2024/01/04 12:37:20;;;;;;;1.30;1.00;;;22.50;44.40;;;;;;6203181;27;80952;-51
2024/01/04 12:40:21;;;;;;;2.30;1.00;;;22.50;44.30;;;;;;6205088;28;80809;-49
2024/01/04 12:43:21;;;;;;;1.25;0.98;;;22.50;44.20;;;;;;6214965;27;80544;-49
2024/01/04 12:46:22;;;;;;;1.35;0.90;;;22.50;44.10;;;;;;6206261;28;80296;-50
2024/01/04 12:49:22;;;;;;;1.33;0.82;;;22.50;44.10;;;;;;6202868;27;80633;-48
2024/01/04 12:52:23;;;;;;;2.35;1.45;;;22.50;44.00;;;;;;6207528;27;80345;-54
2024/01/04 12:55:23;;;;;;;1.30;0.98;;;22.50;43.90;;;;;;6225078;27;81050;-53
2024/01/04 12:58:24;;;;;;;1.27;0.90;;;22.50;43.90;;;;;;6227123;27;80436;-52
2024/01/04 13:01:24;;;;;;;1.92;1.13;;;22.50;43.80;;;;;;6227720;27;81625;-51
2024/01/04 13:04:25;;;;;;;2.22;1.10;;;22.50;43.70;;;;;;6226749;27;80630;-54
2024/01/04 13:07:25;;;;;;;1.70;0.93;;;22.50;43.60;;;;;;6223112;27;81228;-51
2024/01/04 13:10:26;;;;;;;8.98;1.90;;;22.50;43.60;;;;;;6226728;27;82373;-48
2024/01/04 13:13:27;;;;;;;4.40;1.23;;;22.50;43.60;;;;;;6225524;27;80279;-49
2024/01/04 13:16:28;;;;;;;7.80;1.17;;;22.40;43.90;;;;;;6228385;27;81265;-49
2024/01/04 13:19:29;;;;;;;1.67;0.90;;;22.50;43.70;;;;;;6224578;27;81066;-48
2024/01/04 13:22:30;;;;;;;3.25;1.20;;;22.50;43.70;;;;;;6210714;27;81875;-49
2024/01/04 13:25:30;;;;;;;2.08;1.17;;;22.50;43.80;;;;;;6222749;27;80435;-49
2024/01/04 13:28:31;;;;;;;2.33;0.85;;;22.60;43.80;;;;;;6210974;27;80454;-49
2024/01/04 13:31:31;;;;;;;1.10;0.68;;;22.60;43.90;;;;;;6221341;27;80856;-53
2024/01/04 13:34:32;;;;;;;4.68;1.50;;;22.60;43.80;;;;;;6220423;27;81131;-47
2024/01/04 13:37:32;;;;;;;2.15;1.00;;;22.60;44.10;;;;;;6211237;27;80922;-49
2024/01/04 13:40:33;;;;;;;6.55;0.88;;;22.60;44.10;;;;;;6216532;27;83155;-51
2024/01/04 13:43:34;;;;;;;1.27;0.95;;;22.60;44.10;;;;;;6224941;27;81736;-46
2024/01/04 13:46:35;;;;;;;1.85;1.00;;;22.70;44.30;;;;;;6226609;27;80410;-48
2024/01/04 13:49:35;;;;;;;1.05;0.80;;;22.70;44.10;;;;;;6202810;27;80452;-58
2024/01/04 13:52:36;;;;;;;1.33;0.90;;;22.70;44.00;;;;;;6202468;28;80951;-59
2024/01/04 13:55:36;;;;;;;0.73;0.60;;;22.70;44.10;;;;;;6198752;27;80420;-59
2024/01/04 13:58:37;;;;;;;1.13;0.80;;;22.70;43.80;;;;;;6231718;27;82983;-58
2024/01/04 14:01:37;;;;;;;1.58;1.00;;;22.70;43.90;;;;;;6221247;27;81957;-59
2024/01/04 14:04:38;;;;;;;1.63;0.90;;;22.70;43.80;;;;;;6201913;28;80327;-61
2024/01/04 14:07:38;;;;;;;0.90;0.70;;;22.70;43.80;;;;;;6203583;27;83354;-64
2024/01/04 14:10:42;;;;;;;1.38;0.85;;;22.80;43.90;;;;;;6200247;28;80597;-66
2024/01/04 14:13:43;;;;;;;1.10;0.90;;;22.70;43.80;;;;;;6199391;27;80262;-64
2024/01/04 14:16:44;;;;;;;1.67;0.80;;;22.80;43.80;;;;;;6201653;28;80900;-66
2024/01/04 14:19:44;;;;;;;2.25;0.75;;;22.80;43.80;;;;;;6212319;27;81702;-63
2024/01/04 14:22:45;;;;;;;2.33;0.90;;;22.80;43.90;;;;;;6216582;27;80792;-61
2024/01/04 14:25:45;;;;;;;9.18;1.23;;;22.80;44.20;;;;;;6227659;27;80576;-63
2024/01/04 14:28:46;;;;;;;3.90;1.00;;;22.80;44.30;;;;;;6209705;27;80762;-63
2024/01/04 14:31:46;;;;;;;2.72;0.98;;;22.80;44.20;;;;;;6220554;27;82568;-62
2024/01/04 14:34:47;;;;;;;3.15;1.05;;;22.90;44.20;;;;;;6227383;27;80954;-64
2024/01/04 14:37:47;;;;;;;4.95;1.02;;;22.90;44.20;;;;;;6218427;27;80078;-64
2024/01/04 14:40:48;;;;;;;4.47;1.10;;;22.90;44.20;;;;;;6214024;27;82291;-65
2024/01/04 14:43:49;;;;;;;2.85;1.20;;;22.90;44.20;;;;;;6212682;27;81880;-49
2024/01/04 14:46:49;;;;;;;3.03;1.35;;;23.00;44.80;;;;;;6213659;27;80583;-54
2024/01/04 14:49:50;;;;;;;2.75;1.40;;;23.00;45.20;;;;;;6214673;27;80737;-50
2024/01/04 14:52:50;;;;;;;1.73;0.80;;;23.00;44.80;;;;;;6213057;27;80441;-51
2024/01/04 14:55:51;;;;;;;2.20;1.20;;;23.00;44.90;;;;;;6213504;27;84198;-50
2024/01/04 14:58:51;;;;;;;5.22;1.85;;;23.00;44.90;;;;;;6216499;27;80427;-52
2024/01/04 15:01:52;;;;;;;4.38;1.30;;;23.10;45.00;;;;;;6205414;27;82079;-60
2024/01/04 15:04:52;;;;;;;3.38;1.20;;;23.10;45.10;;;;;;6222078;27;80868;-59
2024/01/04 15:07:53;;;;;;;2.88;1.42;;;23.10;45.70;;;;;;6223496;27;83384;-60
2024/01/04 15:10:53;;;;;;;4.15;1.10;;;23.10;45.90;;;;;;6219069;27;80662;-60
2024/01/04 15:13:54;;;;;;;4.70;1.38;;;23.10;46.00;;;;;;6225693;27;83584;-60
2024/01/04 15:16:55;;;;;;;3.05;1.35;;;23.20;45.90;;;;;;6218027;27;80539;-59
2024/01/04 15:19:55;;;;;;;2.75;1.60;;;23.10;46.30;;;;;;6225855;27;80489;-60
2024/01/04 15:22:56;;;;;;;3.33;1.67;;;23.10;46.20;;;;;;6218353;27;81009;-61
2024/01/04 15:25:56;;;;;;;3.45;1.58;;;23.10;46.20;;;;;;6227838;27;80393;-61
2024/01/04 15:28:57;;;;;;;4.60;1.77;;;23.10;46.10;;;;;;6227248;27;80527;-60
2024/01/04 15:31:59;;;;;;;3.60;1.55;;;23.20;46.20;;;;;;6222215;27;80876;-60
2024/01/04 15:34:59;;;;;;;2.47;1.55;;;23.20;46.30;;;;;;6222688;27;80273;-60
2024/01/04 15:38:00;;;;;;;6.88;1.73;;;23.20;46.30;;;;;;6225050;27;81436;-62
2024/01/04 15:41:00;;;;;;;3.17;1.95;;;23.20;46.40;;;;;;6225337;27;81803;-63